Time;durP1;ratioP1;P1;durP2;ratioP2;P2;SDS_P1;SDS_P2;PMS_P1;PMS_P2;Temp;Humidity;BMP_temperature;BMP_pressure;BME280_temperature;BME280_humidity;BME280_pressure;Samples;Min_cycle;Max_cycle;Signal;HPM_P1;HPM_P2
2022/04/23 00:01:30;;;;;;;10.00;7.85;;;11.80;99.90;;;;;;5052536;28;20052;-82
2022/04/23 00:03:56;;;;;;;9.57;7.25;;;11.80;99.90;;;;;;5034696;28;20033;-83
2022/04/23 00:06:21;;;;;;;9.48;7.97;;;11.70;99.90;;;;;;5052598;28;20379;-83
2022/04/23 00:08:47;;;;;;;10.32;7.97;;;11.70;99.90;;;;;;5052674;28;20498;-82
2022/04/23 00:11:12;;;;;;;10.00;7.53;;;11.70;99.90;;;;;;5052191;28;20139;-82
2022/04/23 00:13:38;;;;;;;10.52;8.10;;;11.60;99.90;;;;;;5052193;28;20032;-82
2022/04/23 00:16:07;;;;;;;9.82;7.90;;;11.60;99.90;;;;;;5052258;28;20479;-82
2022/04/23 00:18:34;;;;;;;10.90;7.97;;;11.60;99.90;;;;;;5034179;28;20026;-82
2022/04/23 00:20:59;;;;;;;10.13;7.80;;;11.60;99.90;;;;;;5034230;28;20045;-82
2022/04/23 00:23:27;;;;;;;9.45;7.85;;;11.60;99.90;;;;;;5034593;28;20044;-82
2022/04/23 00:25:54;;;;;;;12.68;8.98;;;11.60;99.90;;;;;;5038184;28;20029;-82
2022/04/23 00:28:20;;;;;;;11.07;9.07;;;11.60;99.90;;;;;;5038165;28;20151;-83
2022/04/23 00:30:47;;;;;;;11.02;8.32;;;11.50;99.90;;;;;;5038251;28;20057;-83
2022/04/23 00:33:13;;;;;;;11.75;7.80;;;11.50;99.90;;;;;;5038167;28;20035;-82
2022/04/23 00:35:39;;;;;;;12.07;8.43;;;11.50;99.90;;;;;;5056281;28;20032;-83
2022/04/23 00:38:07;;;;;;;10.82;8.45;;;11.40;99.90;;;;;;5038298;28;20103;-83
2022/04/23 00:40:33;;;;;;;10.73;7.75;;;11.40;99.90;;;;;;5055824;28;20102;-83
2022/04/23 00:42:59;;;;;;;12.00;9.88;;;11.40;99.90;;;;;;5037981;28;20059;-82
2022/04/23 00:45:27;;;;;;;13.32;9.57;;;11.40;99.90;;;;;;5055819;28;20450;-83
2022/04/23 00:47:54;;;;;;;11.85;9.27;;;11.40;99.90;;;;;;5055704;28;20380;-82
2022/04/23 00:50:21;;;;;;;11.32;9.52;;;11.40;99.90;;;;;;5037712;28;20028;-83
2022/04/23 00:52:52;;;;;;;10.32;8.88;;;11.30;99.90;;;;;;5037703;28;20036;-83
2022/04/23 00:55:19;;;;;;;11.07;8.90;;;11.30;99.90;;;;;;5055487;28;20124;-82
2022/04/23 00:57:45;;;;;;;11.93;8.70;;;11.30;99.90;;;;;;5037666;28;20040;-82
2022/04/23 01:00:12;;;;;;;15.75;10.73;;;11.20;99.90;;;;;;5037676;28;20242;-82
2022/04/23 01:02:38;;;;;;;15.32;10.55;;;11.20;99.90;;;;;;5055614;28;20044;-83
2022/04/23 01:05:09;;;;;;;11.27;9.65;;;11.20;99.90;;;;;;5037483;28;20029;-83
2022/04/23 01:07:41;;;;;;;14.60;11.35;;;11.20;99.90;;;;;;5037680;28;20491;-82
2022/04/23 01:10:08;;;;;;;14.68;11.50;;;11.20;99.90;;;;;;5037662;28;20033;-83
2022/04/23 01:12:35;;;;;;;12.63;10.38;;;11.10;99.90;;;;;;5037455;28;20576;-82
2022/04/23 01:15:04;;;;;;;16.38;11.57;;;11.10;99.90;;;;;;5037423;28;20025;-83
2022/04/23 01:17:30;;;;;;;11.80;10.07;;;11.10;99.90;;;;;;5037564;28;20044;-83
2022/04/23 01:19:55;;;;;;;14.50;11.73;;;11.10;99.90;;;;;;5055478;28;20041;-83
2022/04/23 01:22:25;;;;;;;14.30;11.25;;;11.00;99.90;;;;;;5036912;28;20041;-83
2022/04/23 01:24:51;;;;;;;17.98;13.65;;;11.10;99.90;;;;;;5055292;28;20434;-84
2022/04/23 01:27:18;;;;;;;17.30;12.95;;;11.10;99.90;;;;;;5055104;28;20032;-83
2022/04/23 01:29:44;;;;;;;18.17;12.60;;;11.10;99.90;;;;;;5054748;28;20049;-83
2022/04/23 01:32:10;;;;;;;16.48;12.98;;;11.20;99.90;;;;;;5037458;28;20479;-83
2022/04/23 01:34:36;;;;;;;17.95;15.10;;;11.10;99.90;;;;;;5037385;28;20028;-83
2022/04/23 01:37:02;;;;;;;15.45;13.30;;;11.10;99.90;;;;;;5036894;28;20029;-83
2022/04/23 01:39:28;;;;;;;15.68;12.70;;;11.20;99.90;;;;;;5037748;28;20040;-83
2022/04/23 01:41:54;;;;;;;16.45;12.65;;;11.10;99.90;;;;;;5037318;28;20041;-83
2022/04/23 01:44:20;;;;;;;17.35;13.35;;;11.10;99.90;;;;;;5037764;28;20035;-82
2022/04/23 01:46:45;;;;;;;16.10;13.30;;;11.10;99.90;;;;;;5056475;28;20048;-83
2022/04/23 01:49:11;;;;;;;15.63;12.35;;;11.10;99.90;;;;;;5039536;28;20498;-83
2022/04/23 01:51:36;;;;;;;15.52;12.75;;;11.10;99.90;;;;;;5039028;28;20506;-82
2022/04/23 01:54:02;;;;;;;14.95;12.80;;;11.10;99.90;;;;;;5039456;28;20113;-82
2022/04/23 01:56:28;;;;;;;16.52;13.57;;;11.20;99.90;;;;;;5041503;28;20040;-82
2022/04/23 01:58:53;;;;;;;15.48;12.50;;;11.20;99.90;;;;;;5050104;28;20029;-82
2022/04/23 02:01:19;;;;;;;16.70;13.52;;;11.30;99.90;;;;;;5055976;28;20071;-84
2022/04/23 02:03:45;;;;;;;17.65;14.93;;;11.30;99.90;;;;;;5046825;28;20026;-82
2022/04/23 02:06:12;;;;;;;16.58;13.48;;;11.40;99.90;;;;;;5075902;28;20072;-83
2022/04/23 02:08:38;;;;;;;17.48;14.60;;;11.40;99.90;;;;;;5075648;28;20028;-83
2022/04/23 02:11:04;;;;;;;18.08;14.90;;;11.40;99.90;;;;;;5073865;28;20081;-84
2022/04/23 02:13:30;;;;;;;17.73;14.63;;;11.40;99.90;;;;;;5056951;28;20100;-83
2022/04/23 02:15:56;;;;;;;19.25;14.50;;;11.40;99.90;;;;;;5055539;28;20033;-84
2022/04/23 02:18:22;;;;;;;14.23;12.45;;;11.40;99.90;;;;;;5070573;28;20495;-82
2022/04/23 02:20:48;;;;;;;17.95;14.48;;;11.50;99.90;;;;;;5051144;28;20100;-82
2022/04/23 02:23:14;;;;;;;18.42;14.82;;;11.50;99.90;;;;;;5049618;28;20032;-82
2022/04/23 02:25:40;;;;;;;18.52;15.23;;;11.50;99.90;;;;;;5050216;28;20037;-82
2022/04/23 02:28:05;;;;;;;16.77;14.23;;;11.40;99.90;;;;;;5067575;28;20052;-82
2022/04/23 02:30:34;;;;;;;20.63;15.57;;;11.40;99.90;;;;;;5052683;28;20029;-82
2022/04/23 02:33:00;;;;;;;17.40;14.05;;;11.40;99.90;;;;;;5049474;28;20067;-83
2022/04/23 02:35:26;;;;;;;17.58;14.98;;;11.30;99.90;;;;;;5049247;28;20074;-83
2022/04/23 02:37:56;;;;;;;16.80;13.95;;;11.30;99.90;;;;;;5048094;28;20040;-82
2022/04/23 02:40:22;;;;;;;18.17;14.88;;;11.30;99.90;;;;;;5060594;28;20029;-82
2022/04/23 02:42:50;;;;;;;18.13;15.02;;;11.20;99.90;;;;;;5055344;28;20045;-82
2022/04/23 02:45:16;;;;;;;17.75;15.07;;;11.20;99.90;;;;;;5036495;28;20039;-81
2022/04/23 02:47:44;;;;;;;18.33;14.35;;;11.20;99.90;;;;;;5054817;28;20033;-83
2022/04/23 02:50:10;;;;;;;19.27;15.93;;;11.10;99.90;;;;;;5037144;28;20031;-82
2022/04/23 02:52:37;;;;;;;18.58;14.57;;;11.10;99.90;;;;;;5053692;28;20459;-82
2022/04/23 02:55:05;;;;;;;17.30;15.00;;;11.10;99.90;;;;;;5035391;28;20029;-82
2022/04/23 02:57:31;;;;;;;16.15;13.55;;;11.00;99.90;;;;;;5053687;28;20043;-82
2022/04/23 02:59:57;;;;;;;21.15;16.08;;;11.00;99.90;;;;;;5035650;28;20056;-83
2022/04/23 03:02:22;;;;;;;17.23;14.93;;;10.90;99.90;;;;;;5035942;28;20158;-83
2022/04/23 03:04:48;;;;;;;20.58;16.30;;;10.90;99.90;;;;;;5036211;28;20047;-83
2022/04/23 03:07:14;;;;;;;22.23;18.98;;;10.90;99.90;;;;;;5055567;28;20116;-83
2022/04/23 03:09:40;;;;;;;19.20;16.25;;;10.90;99.90;;;;;;5053320;28;20512;-82
2022/04/23 03:12:06;;;;;;;17.27;15.02;;;10.90;99.90;;;;;;5035095;28;20039;-83
2022/04/23 03:14:32;;;;;;;18.90;15.88;;;10.90;99.90;;;;;;5034934;28;20028;-82
2022/04/23 03:16:58;;;;;;;20.70;16.75;;;10.80;99.90;;;;;;5052962;28;20037;-82
2022/04/23 03:19:24;;;;;;;19.17;16.13;;;10.80;99.90;;;;;;5035430;28;20116;-83
2022/04/23 03:21:51;;;;;;;18.48;15.60;;;10.80;99.90;;;;;;5035087;28;20135;-82
2022/04/23 03:24:16;;;;;;;18.42;15.05;;;10.70;99.90;;;;;;5035293;28;20036;-82
2022/04/23 03:26:43;;;;;;;18.35;15.35;;;10.70;99.90;;;;;;5052776;28;20033;-83
2022/04/23 03:29:08;;;;;;;19.80;16.08;;;10.70;99.90;;;;;;5034957;28;20136;-83
2022/04/23 03:31:34;;;;;;;17.75;15.75;;;10.60;99.90;;;;;;5035047;28;20123;-83
2022/04/23 03:34:00;;;;;;;17.65;15.38;;;10.70;99.90;;;;;;5035083;28;20029;-82
2022/04/23 03:36:25;;;;;;;16.95;14.35;;;10.70;99.90;;;;;;5034808;28;20177;-82
2022/04/23 03:38:51;;;;;;;19.65;16.42;;;10.70;99.90;;;;;;5052698;28;20021;-82
2022/04/23 03:41:17;;;;;;;19.63;17.23;;;10.70;99.90;;;;;;5052809;28;20071;-83
2022/04/23 03:43:43;;;;;;;16.42;14.32;;;10.70;99.90;;;;;;5034927;28;20033;-82
2022/04/23 03:46:09;;;;;;;18.83;15.85;;;10.70;99.90;;;;;;5052373;28;20044;-82
2022/04/23 03:48:34;;;;;;;18.25;16.35;;;10.70;99.90;;;;;;5034608;28;20577;-83
2022/04/23 03:51:00;;;;;;;18.75;15.85;;;10.70;99.90;;;;;;5034502;28;20032;-83
2022/04/23 03:53:26;;;;;;;18.63;15.95;;;10.60;99.90;;;;;;5052249;28;20032;-82
2022/04/23 03:55:51;;;;;;;17.60;15.65;;;10.60;99.90;;;;;;5034157;28;20036;-82
2022/04/23 03:58:18;;;;;;;17.95;14.77;;;10.60;99.90;;;;;;5051759;28;20478;-82
2022/04/23 04:00:43;;;;;;;19.13;16.00;;;10.50;99.90;;;;;;5034411;28;20427;-83
2022/04/23 04:03:09;;;;;;;21.95;19.38;;;10.50;99.90;;;;;;5034736;28;20171;-82
2022/04/23 04:05:35;;;;;;;23.20;19.02;;;10.50;99.90;;;;;;5052465;28;20064;-81
2022/04/23 04:08:00;;;;;;;21.92;17.35;;;10.40;99.90;;;;;;5052734;28;20029;-81
2022/04/23 04:10:26;;;;;;;21.35;17.88;;;10.40;99.90;;;;;;5034552;28;20025;-81
2022/04/23 04:12:52;;;;;;;18.40;15.18;;;10.40;99.90;;;;;;5052373;28;20483;-82
2022/04/23 04:15:20;;;;;;;18.58;15.30;;;10.30;99.90;;;;;;5034481;28;20448;-82
2022/04/23 04:17:50;;;;;;;20.27;17.13;;;10.40;99.90;;;;;;5034599;28;20044;-81
2022/04/23 04:20:17;;;;;;;19.90;17.40;;;10.30;99.90;;;;;;5052261;28;20063;-83
2022/04/23 04:22:44;;;;;;;22.30;18.00;;;10.30;99.90;;;;;;5052303;28;20041;-83
2022/04/23 04:25:13;;;;;;;23.02;19.25;;;10.30;99.90;;;;;;5034239;28;20691;-82
2022/04/23 04:27:38;;;;;;;20.33;17.08;;;10.30;99.90;;;;;;5034331;28;20403;-83
2022/04/23 04:30:07;;;;;;;23.10;20.38;;;10.30;99.90;;;;;;5052167;28;20049;-83
2022/04/23 04:32:33;;;;;;;22.67;20.08;;;10.30;99.90;;;;;;5034436;28;20071;-83
2022/04/23 04:34:59;;;;;;;23.58;20.27;;;10.20;99.90;;;;;;5034141;28;20402;-82
2022/04/23 04:37:27;;;;;;;21.95;18.63;;;10.30;99.90;;;;;;5034095;28;20036;-83
2022/04/23 04:39:53;;;;;;;25.58;20.75;;;10.30;99.90;;;;;;5034220;28;20022;-83
2022/04/23 04:42:18;;;;;;;24.52;20.77;;;10.20;99.90;;;;;;5034324;28;20548;-84
2022/04/23 04:44:44;;;;;;;24.30;20.20;;;10.30;99.90;;;;;;5034388;28;20037;-83
2022/04/23 04:47:10;;;;;;;22.17;18.88;;;10.30;99.90;;;;;;5034073;28;20368;-82
2022/04/23 04:49:37;;;;;;;22.80;18.58;;;10.20;99.90;;;;;;5052061;28;20064;-82
2022/04/23 04:52:03;;;;;;;20.98;18.10;;;10.20;99.90;;;;;;5034647;28;20039;-83
2022/04/23 04:54:29;;;;;;;21.42;18.73;;;10.20;99.90;;;;;;5034097;28;20040;-82
2022/04/23 04:56:59;;;;;;;21.48;19.13;;;10.20;99.90;;;;;;5033823;28;20128;-82
2022/04/23 04:59:25;;;;;;;20.45;18.10;;;10.10;99.90;;;;;;5034286;28;20040;-81
2022/04/23 05:01:51;;;;;;;24.40;19.75;;;10.20;99.90;;;;;;5051740;28;20041;-82
2022/04/23 05:04:18;;;;;;;21.88;18.15;;;10.20;99.90;;;;;;5033957;28;20756;-82
2022/04/23 05:06:43;;;;;;;20.35;16.42;;;10.20;99.90;;;;;;5051723;28;20069;-82
2022/04/23 05:09:09;;;;;;;18.77;16.77;;;10.10;99.90;;;;;;5033980;28;20075;-82
2022/04/23 05:11:35;;;;;;;21.83;17.88;;;10.20;99.90;;;;;;5036078;28;20041;-83
2022/04/23 05:14:00;;;;;;;23.20;19.38;;;10.20;99.90;;;;;;5037889;28;20124;-83
2022/04/23 05:16:26;;;;;;;24.80;20.77;;;10.20;99.90;;;;;;5055734;28;20067;-82
2022/04/23 05:18:52;;;;;;;22.48;18.50;;;10.20;99.90;;;;;;5038397;28;20022;-83
2022/04/23 05:21:17;;;;;;;23.20;19.83;;;10.30;99.90;;;;;;5055972;28;20037;-82
2022/04/23 05:23:43;;;;;;;23.33;20.60;;;10.30;99.90;;;;;;5055437;28;20033;-82
2022/04/23 05:26:11;;;;;;;22.67;19.58;;;10.30;99.90;;;;;;5037626;28;20239;-82
2022/04/23 05:28:39;;;;;;;20.20;17.10;;;10.30;99.90;;;;;;5037277;28;20045;-82
2022/04/23 05:31:05;;;;;;;19.08;16.98;;;10.30;99.90;;;;;;5055488;28;20028;-81
2022/04/23 05:33:30;;;;;;;23.55;21.02;;;10.40;99.90;;;;;;5037727;28;20082;-82
2022/04/23 05:35:56;;;;;;;22.95;20.20;;;10.40;99.90;;;;;;5037292;28;20033;-81
2022/04/23 05:38:22;;;;;;;23.10;19.38;;;10.40;99.90;;;;;;5037465;28;20079;-82
2022/04/23 05:40:49;;;;;;;22.05;19.42;;;10.40;99.90;;;;;;5037339;28;20052;-83
2022/04/23 05:43:15;;;;;;;22.27;18.92;;;10.50;99.90;;;;;;5037155;28;20040;-82
2022/04/23 05:45:41;;;;;;;20.55;17.67;;;10.50;99.90;;;;;;5036978;28;20021;-83
2022/04/23 05:48:07;;;;;;;24.30;21.60;;;10.50;99.90;;;;;;5055014;28;20067;-82
2022/04/23 05:50:33;;;;;;;22.17;19.77;;;10.50;99.90;;;;;;5037014;28;20025;-82
2022/04/23 05:52:58;;;;;;;20.73;18.13;;;10.40;99.90;;;;;;5054752;28;20340;-82
2022/04/23 05:55:24;;;;;;;20.83;18.48;;;10.40;99.90;;;;;;5036924;28;20040;-82
2022/04/23 05:57:50;;;;;;;19.13;17.08;;;10.50;99.90;;;;;;5036815;28;20025;-82
2022/04/23 06:00:16;;;;;;;22.40;18.83;;;10.50;99.90;;;;;;5036844;28;20036;-80
2022/04/23 06:02:42;;;;;;;22.13;18.50;;;10.50;99.90;;;;;;5037300;28;20041;-80
2022/04/23 06:05:08;;;;;;;19.20;17.20;;;10.60;99.90;;;;;;5036938;28;20427;-81
2022/04/23 06:07:34;;;;;;;20.00;17.90;;;10.60;99.90;;;;;;5054910;28;20033;-82
2022/04/23 06:10:00;;;;;;;21.90;17.45;;;10.70;99.90;;;;;;5020301;28;20064;-81
2022/04/23 06:12:25;;;;;;;19.13;17.02;;;10.70;99.90;;;;;;5052041;28;20059;-83
2022/04/23 06:14:51;;;;;;;18.73;16.60;;;10.70;99.90;;;;;;5051602;28;20037;-84
2022/04/23 06:17:27;;;;;;;18.90;16.58;;;10.80;99.90;;;;;;5052190;28;20040;-83
2022/04/23 06:19:53;;;;;;;20.55;17.48;;;10.80;99.90;;;;;;5051837;28;20040;-85
2022/04/23 06:22:19;;;;;;;21.27;18.15;;;10.90;99.90;;;;;;5033313;28;20040;-83
2022/04/23 06:24:47;;;;;;;18.58;15.98;;;10.90;99.90;;;;;;5034105;28;20029;-86
2022/04/23 06:27:12;;;;;;;18.83;16.83;;;11.00;99.90;;;;;;5033630;28;20033;-83
2022/04/23 06:29:40;;;;;;;17.35;15.52;;;11.10;99.90;;;;;;5033148;28;20053;-84
2022/04/23 06:32:07;;;;;;;18.35;15.85;;;11.10;99.90;;;;;;5033267;28;20056;-84
2022/04/23 06:34:34;;;;;;;17.98;15.70;;;11.20;99.90;;;;;;5033435;28;20044;-83
2022/04/23 06:37:00;;;;;;;19.80;17.25;;;11.20;99.90;;;;;;5033114;28;20037;-84
2022/04/23 06:39:26;;;;;;;19.17;16.98;;;11.20;99.90;;;;;;5033489;28;20066;-84
2022/04/23 06:41:52;;;;;;;18.40;16.50;;;11.20;99.90;;;;;;5032795;28;20049;-83
2022/04/23 06:44:18;;;;;;;18.38;15.90;;;11.20;99.90;;;;;;5032984;28;20035;-80
2022/04/23 06:46:44;;;;;;;20.10;18.00;;;11.20;99.90;;;;;;5032675;28;20032;-82
2022/04/23 06:49:11;;;;;;;17.70;15.80;;;11.20;99.90;;;;;;5032994;28;20045;-85
2022/04/23 06:51:37;;;;;;;18.52;16.55;;;11.30;99.90;;;;;;5033485;28;20553;-86
2022/04/23 06:54:03;;;;;;;16.27;14.32;;;11.40;99.90;;;;;;5051380;28;20115;-84
2022/04/23 06:56:30;;;;;;;19.20;17.05;;;11.40;99.90;;;;;;5033138;28;20433;-84
2022/04/23 06:58:56;;;;;;;20.30;16.95;;;11.40;99.90;;;;;;5033562;28;20036;-87
2022/04/23 07:01:22;;;;;;;19.52;17.02;;;11.50;99.90;;;;;;5033983;28;20037;-87
2022/04/23 07:03:47;;;;;;;16.35;14.57;;;11.60;99.90;;;;;;5034448;28;20131;-85
2022/04/23 07:06:15;;;;;;;16.58;14.75;;;11.70;99.90;;;;;;5033513;28;20040;-86
2022/04/23 07:08:43;;;;;;;17.05;14.50;;;11.70;99.90;;;;;;5034823;28;20071;-86
2022/04/23 07:11:09;;;;;;;16.23;14.40;;;11.80;99.90;;;;;;5035337;28;20025;-87
2022/04/23 07:13:35;;;;;;;16.92;15.10;;;11.90;99.90;;;;;;5042158;28;20041;-85
2022/04/23 07:16:03;;;;;;;17.42;15.63;;;12.00;99.90;;;;;;5056445;28;20039;-85
2022/04/23 07:18:31;;;;;;;17.10;14.32;;;12.00;99.90;;;;;;5038911;28;20060;-85
2022/04/23 07:20:57;;;;;;;17.20;15.40;;;12.10;99.90;;;;;;5040722;28;20037;-84
2022/04/23 07:26:06;;;;;;;18.15;14.95;;;12.20;99.90;;;;;;5051973;28;20395;-84
2022/04/23 07:28:32;;;;;;;16.67;14.52;;;12.30;99.90;;;;;;5036358;28;20037;-87
2022/04/23 07:31:00;;;;;;;20.55;17.30;;;12.40;99.90;;;;;;5039283;28;20033;-85
2022/04/23 07:38:54;;;;;;;19.60;17.50;;;12.60;99.90;;;;;;5055947;28;20071;-82
2022/04/23 07:41:19;;;;;;;22.48;18.13;;;12.60;99.90;;;;;;5037020;28;20037;-85
2022/04/23 07:43:46;;;;;;;18.80;16.75;;;12.70;99.90;;;;;;5054280;28;20085;-84
2022/04/23 07:46:12;;;;;;;19.45;16.20;;;12.80;99.90;;;;;;5035555;28;20060;-86
2022/04/23 07:48:38;;;;;;;18.98;16.75;;;12.80;99.90;;;;;;5032822;28;20056;-87
2022/04/23 07:51:03;;;;;;;19.48;17.00;;;12.90;99.90;;;;;;5034779;28;20029;-89
2022/04/23 07:53:29;;;;;;;20.90;18.70;;;12.90;99.90;;;;;;5033847;28;20039;-87
2022/04/23 07:55:55;;;;;;;21.05;18.83;;;13.00;99.90;;;;;;5051443;28;20099;-89
2022/04/23 07:58:21;;;;;;;21.45;19.15;;;13.00;99.90;;;;;;5033842;28;20485;-85
2022/04/23 08:00:46;;;;;;;19.63;17.55;;;13.10;99.90;;;;;;5033268;28;20033;-89
2022/04/23 08:03:12;;;;;;;18.85;16.85;;;13.20;99.90;;;;;;5033793;28;20067;-86
2022/04/23 08:05:38;;;;;;;17.98;16.08;;;13.20;99.90;;;;;;5032886;28;20456;-85
2022/04/23 08:08:04;;;;;;;20.30;18.08;;;13.30;99.90;;;;;;5050457;28;20095;-86
2022/04/23 08:10:30;;;;;;;18.80;16.67;;;13.40;99.90;;;;;;5032722;28;20107;-86
2022/04/23 08:12:56;;;;;;;17.92;15.80;;;13.50;99.90;;;;;;5050520;28;20033;-85
2022/04/23 08:15:22;;;;;;;16.20;14.50;;;13.60;99.90;;;;;;5033018;28;20040;-88
2022/04/23 08:17:48;;;;;;;19.05;15.93;;;13.70;99.90;;;;;;5050403;28;20131;-85
2022/04/23 08:20:14;;;;;;;20.63;17.25;;;13.80;99.90;;;;;;5033011;28;20116;-85
2022/04/23 08:22:40;;;;;;;20.73;17.92;;;13.90;99.90;;;;;;5032441;28;20056;-84
2022/04/23 08:25:06;;;;;;;21.20;16.73;;;13.90;99.90;;;;;;5032670;28;20032;-85
2022/04/23 08:27:49;;;;;;;19.98;17.65;;;14.00;99.90;;;;;;5032442;28;20386;-85
2022/04/23 08:30:34;;;;;;;18.90;16.90;;;14.10;99.90;;;;;;5032927;28;20048;-86
2022/04/23 08:33:04;;;;;;;21.02;18.33;;;14.20;99.90;;;;;;5034059;28;20094;-85
2022/04/23 08:35:30;;;;;;;18.02;16.13;;;14.30;99.90;;;;;;5032699;28;20637;-88
2022/04/23 08:37:56;;;;;;;21.48;18.77;;;14.40;99.90;;;;;;5031873;28;20044;-84
2022/04/23 08:40:22;;;;;;;20.63;18.23;;;14.50;99.90;;;;;;5032767;28;20043;-87
2022/04/23 08:42:48;;;;;;;20.13;17.58;;;14.50;99.90;;;;;;5051348;28;20056;-88
2022/04/23 08:45:14;;;;;;;22.60;18.67;;;14.70;99.90;;;;;;5052168;28;20428;-87
2022/04/23 08:47:44;;;;;;;18.92;16.92;;;14.80;99.90;;;;;;5055438;28;20383;-86
2022/04/23 08:50:10;;;;;;;20.23;18.10;;;14.90;99.90;;;;;;5039118;28;20037;-83
2022/04/23 08:52:36;;;;;;;20.65;18.42;;;15.00;99.90;;;;;;5036521;28;20048;-85
2022/04/23 08:55:08;;;;;;;18.35;16.33;;;15.10;99.90;;;;;;5036605;28;20115;-85
2022/04/23 08:57:35;;;;;;;17.55;15.07;;;15.20;99.90;;;;;;5034442;28;20499;-85
2022/04/23 09:00:03;;;;;;;20.92;18.60;;;15.40;99.90;;;;;;5035627;28;20136;-84
2022/04/23 09:02:32;;;;;;;19.23;17.15;;;15.60;99.90;;;;;;5053885;28;20037;-83
2022/04/23 09:04:57;;;;;;;20.55;18.35;;;15.70;99.90;;;;;;5037168;28;20098;-88
2022/04/23 09:07:25;;;;;;;20.00;17.35;;;15.80;99.90;;;;;;5035724;28;20330;-86
2022/04/23 09:09:57;;;;;;;17.10;15.23;;;16.00;99.90;;;;;;5053582;28;20428;-84
2022/04/23 09:12:25;;;;;;;21.45;18.38;;;16.20;99.90;;;;;;5053036;28;20040;-85
2022/04/23 09:23:40;;;;;;;16.02;13.68;;;16.40;99.90;;;;;;5053996;28;20144;-86
2022/04/23 09:26:22;;;;;;;17.55;15.70;;;16.40;99.90;;;;;;5034702;28;20063;-83
2022/04/23 09:28:50;;;;;;;16.92;15.13;;;16.60;99.90;;;;;;5052844;28;20037;-83
2022/04/23 09:31:16;;;;;;;17.88;15.30;;;16.60;99.90;;;;;;5035429;28;20455;-88
2022/04/23 09:33:54;;;;;;;19.42;15.73;;;16.70;99.90;;;;;;5053212;28;20036;-84
2022/04/23 09:36:20;;;;;;;19.98;16.98;;;16.90;99.90;;;;;;5034432;28;20040;-82
2022/04/23 09:39:00;;;;;;;16.88;14.50;;;17.10;99.90;;;;;;5034154;28;20029;-84
2022/04/23 09:41:33;;;;;;;17.60;14.77;;;17.30;99.90;;;;;;5033954;28;20041;-84
2022/04/23 09:44:09;;;;;;;16.95;15.15;;;17.30;99.90;;;;;;5034602;28;20033;-84
2022/04/23 09:46:43;;;;;;;21.45;17.77;;;17.10;99.90;;;;;;5034899;28;20032;-88
2022/04/23 09:49:09;;;;;;;18.02;14.48;;;17.10;99.90;;;;;;5036482;28;20025;-86
2022/04/23 09:51:35;;;;;;;17.95;15.77;;;17.90;99.90;;;;;;5035746;28;20037;-84
2022/04/23 09:54:02;;;;;;;19.67;17.58;;;18.60;99.90;;;;;;5051355;28;20025;-84
2022/04/23 09:56:28;;;;;;;17.77;15.50;;;19.00;99.90;;;;;;5032939;28;20037;-84
2022/04/23 09:58:55;;;;;;;16.13;14.38;;;19.20;99.90;;;;;;5034217;28;20380;-84
2022/04/23 10:01:22;;;;;;;20.55;16.73;;;19.80;99.90;;;;;;5034665;28;20526;-84
2022/04/23 10:03:52;;;;;;;15.68;13.50;;;20.50;99.90;;;;;;5035045;28;20491;-83
2022/04/23 10:06:20;;;;;;;21.90;16.90;;;20.40;99.90;;;;;;5034218;28;20095;-84
2022/04/23 10:08:49;;;;;;;16.95;13.88;;;19.90;99.90;;;;;;5033740;28;20127;-85
2022/04/23 10:11:23;;;;;;;16.10;13.65;;;19.60;99.90;;;;;;5033734;28;20040;-84
2022/04/23 10:14:13;;;;;;;16.60;14.88;;;19.90;99.90;;;;;;5033900;28;20082;-85
2022/04/23 10:16:39;;;;;;;18.10;14.02;;;20.70;99.30;;;;;;5048624;28;20037;-84
2022/04/23 10:19:07;;;;;;;17.85;15.98;;;21.50;98.50;;;;;;5034040;28;20127;-86
2022/04/23 10:21:53;;;;;;;17.83;14.98;;;21.80;97.30;;;;;;5033368;28;20041;-85
2022/04/23 10:24:51;;;;;;;15.30;13.55;;;21.50;96.90;;;;;;5033619;28;20060;-89
2022/04/23 10:27:18;;;;;;;16.95;14.98;;;20.90;96.80;;;;;;5033021;28;20139;-84
2022/04/23 10:29:45;;;;;;;13.02;11.65;;;20.40;97.10;;;;;;5032881;28;20498;-86
2022/04/23 10:32:10;;;;;;;21.52;14.18;;;20.50;97.70;;;;;;5033326;28;20037;-84
2022/04/23 10:34:37;;;;;;;15.23;13.20;;;20.80;97.40;;;;;;5032927;28;20040;-84
2022/04/23 10:37:17;;;;;;;16.27;13.10;;;21.10;97.10;;;;;;5051159;28;20490;-83
2022/04/23 10:40:03;;;;;;;13.77;11.57;;;20.70;96.70;;;;;;5032790;28;20552;-84
2022/04/23 10:42:31;;;;;;;13.45;11.85;;;20.40;97.00;;;;;;5031632;28;20152;-85
2022/04/23 10:45:03;;;;;;;12.75;11.30;;;20.50;97.40;;;;;;5032630;28;20039;-84
2022/04/23 10:47:34;;;;;;;14.80;12.80;;;20.90;97.10;;;;;;5032997;28;20061;-83
2022/04/23 10:50:16;;;;;;;15.00;11.40;;;21.30;96.40;;;;;;5032596;28;20049;-84
2022/04/23 10:52:44;;;;;;;12.50;9.52;;;21.40;96.50;;;;;;5032378;28;20041;-84
2022/04/23 10:55:13;;;;;;;11.80;9.82;;;21.70;96.50;;;;;;5050525;28;20112;-85
2022/04/23 10:57:39;;;;;;;14.25;12.75;;;22.80;96.40;;;;;;5032811;28;20040;-84
2022/04/23 11:00:16;;;;;;;14.40;12.43;;;23.70;94.80;;;;;;5032931;28;20283;-84
2022/04/23 11:02:46;;;;;;;12.20;10.95;;;24.30;93.70;;;;;;5032654;28;20040;-86
2022/04/23 11:14:04;;;;;;;12.40;11.10;;;26.00;90.90;;;;;;5030907;28;20655;-85
2022/04/23 11:16:30;;;;;;;14.40;12.93;;;26.20;90.10;;;;;;5013512;28;20793;-86
2022/04/23 11:18:58;;;;;;;14.63;13.02;;;26.30;88.60;;;;;;5013460;28;20117;-87
2022/04/23 11:21:31;;;;;;;14.10;11.70;;;26.40;87.20;;;;;;5025684;28;20398;-84
2022/04/23 11:23:59;;;;;;;13.10;11.57;;;26.40;86.80;;;;;;5033616;28;20037;-85
2022/04/23 11:26:44;;;;;;;12.77;11.48;;;26.50;85.80;;;;;;5032749;28;20029;-83
2022/04/23 11:29:10;;;;;;;13.40;11.65;;;26.70;85.10;;;;;;5031643;28;20053;-85
2022/04/23 11:31:36;;;;;;;14.45;12.95;;;26.60;84.30;;;;;;5050895;28;20501;-84
2022/04/23 11:34:03;;;;;;;12.60;11.07;;;26.40;83.00;;;;;;5051055;28;20037;-86
2022/04/23 11:36:31;;;;;;;14.52;12.05;;;26.40;83.20;;;;;;5033400;28;20037;-86
2022/04/23 11:38:58;;;;;;;13.40;12.00;;;26.50;82.50;;;;;;5033540;28;20029;-85
2022/04/23 11:41:30;;;;;;;12.35;11.05;;;26.60;81.70;;;;;;5032758;28;20033;-85
2022/04/23 11:43:56;;;;;;;13.38;11.50;;;27.00;80.90;;;;;;5050843;28;20041;-85
2022/04/23 11:46:22;;;;;;;13.15;11.05;;;26.60;80.20;;;;;;5032789;28;20055;-85
2022/04/23 11:48:50;;;;;;;18.48;14.80;;;26.50;80.90;;;;;;5050644;28;20036;-86
2022/04/23 11:51:18;;;;;;;15.02;13.52;;;26.10;79.50;;;;;;5032894;28;20652;-87
2022/04/23 11:53:58;;;;;;;12.80;11.50;;;25.30;79.90;;;;;;5032297;28;20129;-85
2022/04/23 11:56:25;;;;;;;15.80;14.07;;;24.50;81.20;;;;;;5031579;28;20119;-84
2022/04/23 11:59:03;;;;;;;12.85;11.52;;;24.80;81.30;;;;;;5033054;28;20753;-84
2022/04/23 12:01:29;;;;;;;16.02;14.32;;;25.40;81.40;;;;;;5032639;28;20080;-86
2022/04/23 12:03:56;;;;;;;14.80;11.05;;;25.60;80.90;;;;;;5033540;28;20434;-85
2022/04/23 12:06:23;;;;;;;11.98;10.68;;;26.00;80.80;;;;;;5051287;28;20044;-86
2022/04/23 12:08:49;;;;;;;13.13;11.73;;;26.40;79.90;;;;;;5032702;28;20033;-85
2022/04/23 12:11:22;;;;;;;13.63;11.73;;;26.40;79.40;;;;;;5047615;28;21081;-87
2022/04/23 12:13:48;;;;;;;14.70;12.60;;;26.70;78.80;;;;;;5021466;28;20037;-84
2022/04/23 12:16:30;;;;;;;12.77;11.43;;;26.60;76.60;;;;;;5014010;28;20819;-85
2022/04/23 12:19:08;;;;;;;14.85;12.70;;;26.10;77.90;;;;;;5013895;28;20498;-83
2022/04/23 12:21:35;;;;;;;15.18;12.30;;;26.00;76.50;;;;;;5032636;28;20072;-88
2022/04/23 12:24:02;;;;;;;12.55;10.48;;;26.00;76.20;;;;;;5035124;28;20091;-86
2022/04/23 12:26:33;;;;;;;13.35;11.95;;;25.70;77.80;;;;;;5035107;28;20045;-84
2022/04/23 12:42:26;;;;;;;13.45;10.73;;;26.20;76.10;;;;;;5062286;28;20086;-85
2022/04/23 12:44:53;;;;;;;12.90;11.45;;;26.50;75.80;;;;;;5064334;28;20033;-84
2022/04/23 12:47:29;;;;;;;11.73;10.50;;;26.90;74.30;;;;;;5082606;28;20060;-87
2022/04/23 12:50:03;;;;;;;13.65;12.25;;;27.10;73.80;;;;;;5076541;28;20033;-88
2022/04/23 12:52:38;;;;;;;11.90;10.70;;;27.10;73.10;;;;;;5056512;28;20036;-85
2022/04/23 12:55:14;;;;;;;11.82;10.73;;;27.00;73.60;;;;;;5074487;28;20491;-86
2022/04/23 12:57:52;;;;;;;14.80;11.77;;;27.40;72.80;;;;;;5055786;28;20163;-85
2022/04/23 13:00:20;;;;;;;11.93;10.65;;;27.10;71.50;;;;;;5055768;28;20044;-84
2022/04/23 13:02:50;;;;;;;12.15;10.95;;;26.90;72.50;;;;;;5051365;28;20044;-86
2022/04/23 13:05:15;;;;;;;11.38;10.15;;;27.10;72.40;;;;;;5034813;28;20033;-87
2022/04/23 13:10:26;;;;;;;9.77;8.77;;;27.60;72.80;;;;;;5057503;28;20052;-89
2022/04/23 13:12:52;;;;;;;13.60;11.20;;;27.80;72.40;;;;;;5057221;28;20394;-87